sensor_id;sensor_type;location;lat;lon;timestamp;pressure;altitude;pressure_sealevel;temperature;humidity
60240;BME280;46102;39.012;-7.064;2023-05-09T00:01:53;98977.66;;;19.56;60.30
60240;BME280;46102;39.012;-7.064;2023-05-09T00:03:53;98984.13;;;19.41;60.43
60240;BME280;46102;39.012;-7.064;2023-05-09T00:05:55;98981.53;;;19.32;60.77
60240;BME280;46102;39.012;-7.064;2023-05-09T00:07:56;98983.16;;;19.33;60.95
60240;BME280;46102;39.012;-7.064;2023-05-09T00:09:57;98967.94;;;19.27;61.28
60240;BME280;46102;39.012;-7.064;2023-05-09T00:11:58;98973.31;;;19.20;61.47
60240;BME280;46102;39.012;-7.064;2023-05-09T00:13:58;98976.56;;;19.22;61.64
60240;BME280;46102;39.012;-7.064;2023-05-09T00:15:59;98978.44;;;19.18;61.85
60240;BME280;46102;39.012;-7.064;2023-05-09T00:18:00;98975.22;;;19.16;61.94
60240;BME280;46102;39.012;-7.064;2023-05-09T00:20:01;98988.53;;;19.07;62.24
60240;BME280;46102;39.012;-7.064;2023-05-09T00:22:04;98988.63;;;19.10;62.44
60240;BME280;46102;39.012;-7.064;2023-05-09T00:24:05;98991.94;;;19.00;62.71
60240;BME280;46102;39.012;-7.064;2023-05-09T00:26:06;98993.03;;;18.96;63.14
60240;BME280;46102;39.012;-7.064;2023-05-09T00:28:07;98989.81;;;18.93;63.29
60240;BME280;46102;39.012;-7.064;2023-05-09T00:30:08;98993.69;;;18.89;63.52
60240;BME280;46102;39.012;-7.064;2023-05-09T00:32:09;98978.03;;;18.81;63.74
60240;BME280;46102;39.012;-7.064;2023-05-09T00:34:10;98978.38;;;18.79;63.93
60240;BME280;46102;39.012;-7.064;2023-05-09T00:36:11;98972.38;;;18.77;63.97
60240;BME280;46102;39.012;-7.064;2023-05-09T00:38:12;98969.69;;;18.65;64.57
60240;BME280;46102;39.012;-7.064;2023-05-09T00:40:13;98969.44;;;18.54;64.85
60240;BME280;46102;39.012;-7.064;2023-05-09T00:42:14;98965.84;;;18.69;64.63
60240;BME280;46102;39.012;-7.064;2023-05-09T00:44:16;98965.22;;;18.60;64.91
60240;BME280;46102;39.012;-7.064;2023-05-09T00:46:16;98972.56;;;18.52;65.25
60240;BME280;46102;39.012;-7.064;2023-05-09T00:48:17;98961.63;;;18.44;65.55
60240;BME280;46102;39.012;-7.064;2023-05-09T00:50:18;98962.47;;;18.44;65.57
60240;BME280;46102;39.012;-7.064;2023-05-09T00:52:19;98977.06;;;18.41;65.57
60240;BME280;46102;39.012;-7.064;2023-05-09T00:54:23;98978.31;;;18.44;65.56
60240;BME280;46102;39.012;-7.064;2023-05-09T00:56:24;98983.78;;;18.40;65.74
60240;BME280;46102;39.012;-7.064;2023-05-09T00:58:25;98975.28;;;18.33;65.96
60240;BME280;46102;39.012;-7.064;2023-05-09T01:00:26;98962.53;;;18.32;65.87
60240;BME280;46102;39.012;-7.064;2023-05-09T01:02:27;98954.66;;;18.18;66.47
60240;BME280;46102;39.012;-7.064;2023-05-09T01:04:28;98949.56;;;18.20;66.52
60240;BME280;46102;39.012;-7.064;2023-05-09T01:11:05;98954.50;;;18.11;66.60
60240;BME280;46102;39.012;-7.064;2023-05-09T01:15:25;98943.41;;;18.11;66.73
60240;BME280;46102;39.012;-7.064;2023-05-09T01:21:39;98947.25;;;18.06;66.98
60240;BME280;46102;39.012;-7.064;2023-05-09T01:30:11;98966.75;;;17.94;67.26
60240;BME280;46102;39.012;-7.064;2023-05-09T01:32:16;98962.81;;;17.95;67.33
60240;BME280;46102;39.012;-7.064;2023-05-09T01:34:20;98965.13;;;17.93;67.42
60240;BME280;46102;39.012;-7.064;2023-05-09T01:36:23;98956.19;;;17.84;68.12
60240;BME280;46102;39.012;-7.064;2023-05-09T01:38:30;98953.41;;;17.84;68.05
60240;BME280;46102;39.012;-7.064;2023-05-09T01:40:32;98951.56;;;17.76;68.32
60240;BME280;46102;39.012;-7.064;2023-05-09T01:42:41;98945.94;;;17.72;68.54
60240;BME280;46102;39.012;-7.064;2023-05-09T01:44:44;98955.66;;;17.66;68.81
60240;BME280;46102;39.012;-7.064;2023-05-09T01:46:46;98950.56;;;17.68;69.03
60240;BME280;46102;39.012;-7.064;2023-05-09T01:48:49;98958.50;;;17.69;68.78
60240;BME280;46102;39.012;-7.064;2023-05-09T01:50:51;98958.50;;;17.69;69.06
60240;BME280;46102;39.012;-7.064;2023-05-09T01:52:55;98956.34;;;17.63;69.12
60240;BME280;46102;39.012;-7.064;2023-05-09T01:54:57;98956.28;;;17.59;69.35
60240;BME280;46102;39.012;-7.064;2023-05-09T01:57:00;98959.66;;;17.53;69.82
60240;BME280;46102;39.012;-7.064;2023-05-09T01:59:02;98951.94;;;17.46;70.18
60240;BME280;46102;39.012;-7.064;2023-05-09T02:01:05;98949.50;;;17.44;70.48
60240;BME280;46102;39.012;-7.064;2023-05-09T02:03:07;98947.00;;;17.39;70.29
60240;BME280;46102;39.012;-7.064;2023-05-09T02:05:09;98954.50;;;17.39;70.70
60240;BME280;46102;39.012;-7.064;2023-05-09T02:07:11;98961.56;;;17.36;70.75
60240;BME280;46102;39.012;-7.064;2023-05-09T02:09:12;98957.97;;;17.36;70.67
60240;BME280;46102;39.012;-7.064;2023-05-09T02:11:14;98956.25;;;17.31;70.89
60240;BME280;46102;39.012;-7.064;2023-05-09T02:13:15;98955.25;;;17.23;70.98
60240;BME280;46102;39.012;-7.064;2023-05-09T02:15:16;98948.53;;;17.24;71.17
60240;BME280;46102;39.012;-7.064;2023-05-09T02:17:17;98950.06;;;17.22;71.34
60240;BME280;46102;39.012;-7.064;2023-05-09T02:19:18;98954.41;;;17.07;71.63
60240;BME280;46102;39.012;-7.064;2023-05-09T02:21:19;98948.59;;;17.12;71.71
60240;BME280;46102;39.012;-7.064;2023-05-09T02:23:20;98939.81;;;17.10;71.72
60240;BME280;46102;39.012;-7.064;2023-05-09T02:25:21;98937.25;;;17.17;71.74
60240;BME280;46102;39.012;-7.064;2023-05-09T02:27:22;98938.56;;;17.08;71.70
60240;BME280;46102;39.012;-7.064;2023-05-09T02:29:27;98929.69;;;17.02;72.14
60240;BME280;46102;39.012;-7.064;2023-05-09T02:31:32;98935.66;;;17.16;71.89
60240;BME280;46102;39.012;-7.064;2023-05-09T02:33:35;98937.06;;;17.10;71.85
60240;BME280;46102;39.012;-7.064;2023-05-09T02:35:39;98941.34;;;17.08;72.04
60240;BME280;46102;39.012;-7.064;2023-05-09T02:37:44;98938.22;;;17.09;71.86
60240;BME280;46102;39.012;-7.064;2023-05-09T02:39:46;98935.34;;;17.05;72.12
60240;BME280;46102;39.012;-7.064;2023-05-09T02:41:47;98939.97;;;17.01;72.22
60240;BME280;46102;39.012;-7.064;2023-05-09T02:43:49;98939.13;;;17.13;72.19
60240;BME280;46102;39.012;-7.064;2023-05-09T02:45:49;98928.75;;;17.10;72.59
60240;BME280;46102;39.012;-7.064;2023-05-09T02:47:50;98930.25;;;17.08;72.70
60240;BME280;46102;39.012;-7.064;2023-05-09T02:49:51;98933.41;;;16.94;72.99
60240;BME280;46102;39.012;-7.064;2023-05-09T02:51:52;98936.06;;;16.90;73.40
60240;BME280;46102;39.012;-7.064;2023-05-09T02:53:53;98949.13;;;16.90;73.46
60240;BME280;46102;39.012;-7.064;2023-05-09T02:55:53;98945.88;;;16.88;73.76
60240;BME280;46102;39.012;-7.064;2023-05-09T02:57:54;98940.22;;;16.84;73.90
60240;BME280;46102;39.012;-7.064;2023-05-09T03:00:00;98947.75;;;16.83;73.87
60240;BME280;46102;39.012;-7.064;2023-05-09T03:02:02;98943.72;;;16.81;74.11
60240;BME280;46102;39.012;-7.064;2023-05-09T03:04:03;98948.75;;;16.79;74.54
60240;BME280;46102;39.012;-7.064;2023-05-09T03:06:05;98949.81;;;16.74;74.52
60240;BME280;46102;39.012;-7.064;2023-05-09T03:08:06;98952.47;;;16.71;74.87
60240;BME280;46102;39.012;-7.064;2023-05-09T03:10:08;98954.31;;;16.67;74.83
60240;BME280;46102;39.012;-7.064;2023-05-09T03:12:10;98953.06;;;16.64;75.21
60240;BME280;46102;39.012;-7.064;2023-05-09T03:14:11;98946.59;;;16.60;75.19
60240;BME280;46102;39.012;-7.064;2023-05-09T03:16:16;98950.50;;;16.59;75.28
60240;BME280;46102;39.012;-7.064;2023-05-09T03:18:18;98955.81;;;16.52;75.91
60240;BME280;46102;39.012;-7.064;2023-05-09T03:20:19;98953.84;;;16.52;75.95
60240;BME280;46102;39.012;-7.064;2023-05-09T03:22:20;98945.66;;;16.43;76.09
60240;BME280;46102;39.012;-7.064;2023-05-09T03:24:30;98955.03;;;16.51;75.90
60240;BME280;46102;39.012;-7.064;2023-05-09T03:26:30;98944.53;;;16.44;76.08
60240;BME280;46102;39.012;-7.064;2023-05-09T03:28:32;98945.44;;;16.36;76.54
60240;BME280;46102;39.012;-7.064;2023-05-09T03:30:36;98943.13;;;16.38;76.47
60240;BME280;46102;39.012;-7.064;2023-05-09T03:32:40;98950.66;;;16.38;76.71
60240;BME280;46102;39.012;-7.064;2023-05-09T03:34:41;98953.75;;;16.36;76.85
60240;BME280;46102;39.012;-7.064;2023-05-09T03:36:41;98963.56;;;16.34;77.03
60240;BME280;46102;39.012;-7.064;2023-05-09T03:38:48;98955.25;;;16.34;77.13
60240;BME280;46102;39.012;-7.064;2023-05-09T03:40:51;98952.72;;;16.29;77.35
60240;BME280;46102;39.012;-7.064;2023-05-09T03:42:54;98945.69;;;16.31;77.36
60240;BME280;46102;39.012;-7.064;2023-05-09T03:44:54;98953.38;;;16.26;77.62
60240;BME280;46102;39.012;-7.064;2023-05-09T03:46:56;98960.44;;;16.23;77.73
60240;BME280;46102;39.012;-7.064;2023-05-09T03:48:58;98946.25;;;16.24;77.85
60240;BME280;46102;39.012;-7.064;2023-05-09T03:50:59;98948.91;;;16.21;77.80
60240;BME280;46102;39.012;-7.064;2023-05-09T03:53:02;98941.53;;;16.25;77.89
60240;BME280;46102;39.012;-7.064;2023-05-09T03:55:03;98940.38;;;16.26;78.02
60240;BME280;46102;39.012;-7.064;2023-05-09T03:57:07;98937.72;;;16.17;78.13
60240;BME280;46102;39.012;-7.064;2023-05-09T03:59:08;98940.97;;;16.19;78.30
60240;BME280;46102;39.012;-7.064;2023-05-09T04:01:09;98948.78;;;16.30;78.10
60240;BME280;46102;39.012;-7.064;2023-05-09T04:03:10;98951.22;;;16.19;78.45
60240;BME280;46102;39.012;-7.064;2023-05-09T04:05:15;98953.41;;;16.13;78.95
60240;BME280;46102;39.012;-7.064;2023-05-09T04:07:16;98960.34;;;16.19;78.72
60240;BME280;46102;39.012;-7.064;2023-05-09T04:09:20;98963.91;;;16.20;78.65
60240;BME280;46102;39.012;-7.064;2023-05-09T04:11:21;98969.56;;;16.23;78.56
60240;BME280;46102;39.012;-7.064;2023-05-09T04:13:23;98967.38;;;16.17;78.68
60240;BME280;46102;39.012;-7.064;2023-05-09T04:15:24;98974.38;;;16.14;78.86
60240;BME280;46102;39.012;-7.064;2023-05-09T04:17:25;98967.22;;;16.13;78.98
60240;BME280;46102;39.012;-7.064;2023-05-09T04:19:26;98974.97;;;16.08;79.22
60240;BME280;46102;39.012;-7.064;2023-05-09T04:21:27;98976.56;;;16.09;79.21
60240;BME280;46102;39.012;-7.064;2023-05-09T04:23:31;98978.41;;;16.05;79.58
60240;BME280;46102;39.012;-7.064;2023-05-09T04:25:33;98977.38;;;15.97;79.87
60240;BME280;46102;39.012;-7.064;2023-05-09T04:27:35;98969.06;;;15.97;79.89
60240;BME280;46102;39.012;-7.064;2023-05-09T04:29:36;98974.22;;;15.98;79.69
60240;BME280;46102;39.012;-7.064;2023-05-09T04:31:38;98967.91;;;15.98;79.77
60240;BME280;46102;39.012;-7.064;2023-05-09T04:33:40;98974.38;;;16.02;79.74
60240;BME280;46102;39.012;-7.064;2023-05-09T04:35:41;98983.13;;;16.04;79.47
60240;BME280;46102;39.012;-7.064;2023-05-09T04:37:43;98989.25;;;16.10;79.31
60240;BME280;46102;39.012;-7.064;2023-05-09T04:39:43;98984.88;;;16.09;79.16
60240;BME280;46102;39.012;-7.064;2023-05-09T04:41:51;98986.31;;;15.94;79.90
60240;BME280;46102;39.012;-7.064;2023-05-09T04:43:52;98982.75;;;15.93;80.00
60240;BME280;46102;39.012;-7.064;2023-05-09T04:45:54;98984.63;;;16.01;79.64
60240;BME280;46102;39.012;-7.064;2023-05-09T04:47:55;98986.13;;;15.99;79.77
60240;BME280;46102;39.012;-7.064;2023-05-09T04:49:56;98991.19;;;15.97;79.75
60240;BME280;46102;39.012;-7.064;2023-05-09T04:51:57;98983.00;;;15.88;80.11
60240;BME280;46102;39.012;-7.064;2023-05-09T04:53:59;98982.28;;;15.91;80.31
60240;BME280;46102;39.012;-7.064;2023-05-09T04:56:05;98985.84;;;15.92;80.05
60240;BME280;46102;39.012;-7.064;2023-05-09T04:58:08;98979.75;;;15.86;80.48
60240;BME280;46102;39.012;-7.064;2023-05-09T05:00:09;98983.69;;;15.85;80.52
60240;BME280;46102;39.012;-7.064;2023-05-09T05:02:12;98972.63;;;15.85;80.81
60240;BME280;46102;39.012;-7.064;2023-05-09T05:04:12;98974.69;;;15.88;80.63
60240;BME280;46102;39.012;-7.064;2023-05-09T05:06:14;98975.97;;;15.91;80.62
60240;BME280;46102;39.012;-7.064;2023-05-09T05:08:16;98973.19;;;15.91;80.72
60240;BME280;46102;39.012;-7.064;2023-05-09T05:10:17;98972.03;;;15.92;80.70
60240;BME280;46102;39.012;-7.064;2023-05-09T05:12:22;98982.19;;;15.88;80.83
60240;BME280;46102;39.012;-7.064;2023-05-09T05:14:23;98982.19;;;15.88;81.04
60240;BME280;46102;39.012;-7.064;2023-05-09T05:16:24;98982.19;;;15.88;81.40
60240;BME280;46102;39.012;-7.064;2023-05-09T05:18:25;98979.53;;;15.91;81.30
60240;BME280;46102;39.012;-7.064;2023-05-09T05:20:27;98980.09;;;15.85;81.73
60240;BME280;46102;39.012;-7.064;2023-05-09T05:22:29;98980.56;;;15.87;81.48
60240;BME280;46102;39.012;-7.064;2023-05-09T05:24:30;98975.03;;;15.87;81.38
60240;BME280;46102;39.012;-7.064;2023-05-09T05:26:30;98980.91;;;15.85;81.64
60240;BME280;46102;39.012;-7.064;2023-05-09T05:28:31;98968.00;;;15.89;81.50
60240;BME280;46102;39.012;-7.064;2023-05-09T05:30:32;98968.09;;;15.80;81.67
60240;BME280;46102;39.012;-7.064;2023-05-09T05:32:33;98973.19;;;15.78;81.83
60240;BME280;46102;39.012;-7.064;2023-05-09T05:34:34;98972.63;;;15.85;81.64
60240;BME280;46102;39.012;-7.064;2023-05-09T05:36:36;98971.13;;;15.88;81.47
60240;BME280;46102;39.012;-7.064;2023-05-09T05:38:36;98974.69;;;15.88;81.62
60240;BME280;46102;39.012;-7.064;2023-05-09T05:40:37;98965.13;;;15.86;81.32
60240;BME280;46102;39.012;-7.064;2023-05-09T05:42:39;98964.31;;;15.85;81.66
60240;BME280;46102;39.012;-7.064;2023-05-09T05:44:40;98961.56;;;15.85;81.66
60240;BME280;46102;39.012;-7.064;2023-05-09T05:46:41;98963.16;;;15.86;81.47
60240;BME280;46102;39.012;-7.064;2023-05-09T05:48:44;98962.47;;;15.89;81.37
60240;BME280;46102;39.012;-7.064;2023-05-09T05:50:45;98957.53;;;15.95;81.37
60240;BME280;46102;39.012;-7.064;2023-05-09T05:52:49;98959.50;;;15.94;81.30
60240;BME280;46102;39.012;-7.064;2023-05-09T05:54:52;98949.69;;;15.97;81.35
60240;BME280;46102;39.012;-7.064;2023-05-09T05:56:53;98957.63;;;15.98;81.12
60240;BME280;46102;39.012;-7.064;2023-05-09T05:58:54;98961.34;;;16.02;80.98
60240;BME280;46102;39.012;-7.064;2023-05-09T06:00:55;98961.13;;;16.08;80.85
60240;BME280;46102;39.012;-7.064;2023-05-09T06:02:56;98954.09;;;16.10;80.38
60240;BME280;46102;39.012;-7.064;2023-05-09T06:05:07;98967.38;;;16.17;80.29
60240;BME280;46102;39.012;-7.064;2023-05-09T06:07:08;98968.28;;;16.21;80.35
60240;BME280;46102;39.012;-7.064;2023-05-09T06:09:09;98973.94;;;16.24;80.06
60240;BME280;46102;39.012;-7.064;2023-05-09T06:11:10;98970.94;;;16.30;79.84
60240;BME280;46102;39.012;-7.064;2023-05-09T06:13:12;98964.03;;;16.36;79.70
60240;BME280;46102;39.012;-7.064;2023-05-09T06:15:16;98975.44;;;16.34;79.63
60240;BME280;46102;39.012;-7.064;2023-05-09T06:17:20;98968.06;;;16.38;79.60
60240;BME280;46102;39.012;-7.064;2023-05-09T06:19:21;98966.09;;;16.39;79.44
60240;BME280;46102;39.012;-7.064;2023-05-09T06:21:22;98971.50;;;16.48;79.17
60240;BME280;46102;39.012;-7.064;2023-05-09T06:23:23;98964.13;;;16.52;78.85
60240;BME280;46102;39.012;-7.064;2023-05-09T06:25:24;98964.72;;;16.57;78.76
60240;BME280;46102;39.012;-7.064;2023-05-09T06:27:25;98969.31;;;16.65;78.40
60240;BME280;46102;39.012;-7.064;2023-05-09T06:29:26;98970.69;;;16.72;77.95
60240;BME280;46102;39.012;-7.064;2023-05-09T06:31:27;98982.94;;;16.71;77.93
60240;BME280;46102;39.012;-7.064;2023-05-09T06:33:27;98973.22;;;16.77;77.76
60240;BME280;46102;39.012;-7.064;2023-05-09T06:35:28;98974.97;;;16.81;77.55
60240;BME280;46102;39.012;-7.064;2023-05-09T06:37:32;98984.22;;;16.85;77.33
60240;BME280;46102;39.012;-7.064;2023-05-09T06:39:33;98980.66;;;16.85;77.31
60240;BME280;46102;39.012;-7.064;2023-05-09T06:41:34;98989.75;;;16.98;76.61
60240;BME280;46102;39.012;-7.064;2023-05-09T06:43:34;98991.56;;;17.06;76.20
60240;BME280;46102;39.012;-7.064;2023-05-09T06:45:35;98996.44;;;17.09;76.08
60240;BME280;46102;39.012;-7.064;2023-05-09T06:47:36;98997.31;;;17.13;75.74
60240;BME280;46102;39.012;-7.064;2023-05-09T06:49:37;98987.72;;;17.23;75.54
60240;BME280;46102;39.012;-7.064;2023-05-09T06:51:37;98990.56;;;17.39;74.48
60240;BME280;46102;39.012;-7.064;2023-05-09T06:53:38;98995.38;;;17.54;73.69
60240;BME280;46102;39.012;-7.064;2023-05-09T06:55:39;98993.44;;;17.71;72.59
60240;BME280;46102;39.012;-7.064;2023-05-09T06:57:40;98990.63;;;17.83;72.11
60240;BME280;46102;39.012;-7.064;2023-05-09T06:59:41;98997.53;;;17.89;71.50
60240;BME280;46102;39.012;-7.064;2023-05-09T07:01:44;99007.69;;;17.97;71.17
60240;BME280;46102;39.012;-7.064;2023-05-09T07:03:44;99012.50;;;18.00;70.83
60240;BME280;46102;39.012;-7.064;2023-05-09T07:05:46;99018.06;;;18.00;70.77
60240;BME280;46102;39.012;-7.064;2023-05-09T07:07:47;99019.69;;;18.01;70.47
60240;BME280;46102;39.012;-7.064;2023-05-09T07:09:48;99022.09;;;18.03;70.48
60240;BME280;46102;39.012;-7.064;2023-05-09T07:11:49;99021.03;;;18.07;70.29
60240;BME280;46102;39.012;-7.064;2023-05-09T07:13:50;99035.81;;;18.12;70.04
60240;BME280;46102;39.012;-7.064;2023-05-09T07:15:50;99034.66;;;18.13;70.27
60240;BME280;46102;39.012;-7.064;2023-05-09T07:17:51;99045.84;;;18.16;70.28
60240;BME280;46102;39.012;-7.064;2023-05-09T07:19:52;99047.19;;;18.22;70.26
60240;BME280;46102;39.012;-7.064;2023-05-09T07:21:53;99034.75;;;18.48;69.12
60240;BME280;46102;39.012;-7.064;2023-05-09T07:23:54;99041.13;;;18.64;68.06
60240;BME280;46102;39.012;-7.064;2023-05-09T07:25:56;99038.25;;;18.77;67.28
60240;BME280;46102;39.012;-7.064;2023-05-09T07:27:57;99036.28;;;18.77;67.52
60240;BME280;46102;39.012;-7.064;2023-05-09T07:29:58;99033.13;;;18.95;66.90
60240;BME280;46102;39.012;-7.064;2023-05-09T07:31:59;99033.19;;;19.14;66.12
60240;BME280;46102;39.012;-7.064;2023-05-09T07:34:00;99028.88;;;19.36;65.17
60240;BME280;46102;39.012;-7.064;2023-05-09T07:36:01;99030.59;;;19.60;64.32
60240;BME280;46102;39.012;-7.064;2023-05-09T07:38:01;99036.47;;;19.74;63.51
60240;BME280;46102;39.012;-7.064;2023-05-09T07:40:03;99034.88;;;19.93;62.81
60240;BME280;46102;39.012;-7.064;2023-05-09T07:42:05;99049.63;;;20.16;61.91
60240;BME280;46102;39.012;-7.064;2023-05-09T07:44:07;99047.25;;;20.38;60.50
60240;BME280;46102;39.012;-7.064;2023-05-09T07:46:08;99052.13;;;20.45;60.22
60240;BME280;46102;39.012;-7.064;2023-05-09T07:48:09;99047.47;;;20.52;60.01
60240;BME280;46102;39.012;-7.064;2023-05-09T07:50:10;99049.63;;;20.59;59.99
60240;BME280;46102;39.012;-7.064;2023-05-09T07:52:11;99043.16;;;20.78;59.66
60240;BME280;46102;39.012;-7.064;2023-05-09T07:54:12;99036.78;;;21.04;58.78
60240;BME280;46102;39.012;-7.064;2023-05-09T07:56:13;99033.97;;;21.31;57.53
60240;BME280;46102;39.012;-7.064;2023-05-09T07:58:13;99030.59;;;21.45;56.26
60240;BME280;46102;39.012;-7.064;2023-05-09T08:00:14;99021.97;;;21.57;55.69
60240;BME280;46102;39.012;-7.064;2023-05-09T08:02:15;99024.03;;;21.60;55.75
60240;BME280;46102;39.012;-7.064;2023-05-09T08:04:16;99025.84;;;21.79;55.43
60240;BME280;46102;39.012;-7.064;2023-05-09T08:06:17;99020.34;;;21.86;54.82
60240;BME280;46102;39.012;-7.064;2023-05-09T08:08:18;99019.28;;;21.98;54.70
60240;BME280;46102;39.012;-7.064;2023-05-09T08:10:18;99020.09;;;22.02;54.52
60240;BME280;46102;39.012;-7.064;2023-05-09T08:12:21;99020.22;;;22.13;54.00
60240;BME280;46102;39.012;-7.064;2023-05-09T08:14:21;99022.22;;;22.12;54.19
60240;BME280;46102;39.012;-7.064;2023-05-09T08:16:22;99021.06;;;22.17;53.73
60240;BME280;46102;39.012;-7.064;2023-05-09T08:18:23;99024.38;;;22.26;53.26
60240;BME280;46102;39.012;-7.064;2023-05-09T08:20:24;99029.72;;;22.42;52.90
60240;BME280;46102;39.012;-7.064;2023-05-09T08:22:24;99033.94;;;22.70;52.07
60240;BME280;46102;39.012;-7.064;2023-05-09T08:24:25;99032.16;;;22.99;51.42
60240;BME280;46102;39.012;-7.064;2023-05-09T08:26:26;99036.81;;;23.28;50.30
60240;BME280;46102;39.012;-7.064;2023-05-09T08:28:27;99043.69;;;23.45;49.61
60240;BME280;46102;39.012;-7.064;2023-05-09T08:30:28;99040.97;;;23.60;49.39
60240;BME280;46102;39.012;-7.064;2023-05-09T08:32:29;99033.47;;;23.78;48.42
60240;BME280;46102;39.012;-7.064;2023-05-09T08:34:29;99041.53;;;23.94;47.87
60240;BME280;46102;39.012;-7.064;2023-05-09T08:36:33;99044.34;;;24.05;47.51
60240;BME280;46102;39.012;-7.064;2023-05-09T08:38:34;99038.38;;;24.17;47.06
60240;BME280;46102;39.012;-7.064;2023-05-09T08:40:36;99040.81;;;24.33;46.97
60240;BME280;46102;39.012;-7.064;2023-05-09T08:42:37;99036.03;;;24.59;45.73
60240;BME280;46102;39.012;-7.064;2023-05-09T08:44:39;99037.25;;;24.86;44.32
60240;BME280;46102;39.012;-7.064;2023-05-09T08:46:42;99039.25;;;24.97;43.45
60240;BME280;46102;39.012;-7.064;2023-05-09T08:48:44;99039.25;;;25.00;43.74
60240;BME280;46102;39.012;-7.064;2023-05-09T08:50:45;99038.44;;;25.07;44.28
60240;BME280;46102;39.012;-7.064;2023-05-09T08:52:45;99030.00;;;25.18;43.76
60240;BME280;46102;39.012;-7.064;2023-05-09T08:54:47;99033.22;;;25.23;43.68
60240;BME280;46102;39.012;-7.064;2023-05-09T08:56:49;99035.19;;;25.30;43.57
60240;BME280;46102;39.012;-7.064;2023-05-09T08:58:50;99028.75;;;25.44;43.46
60240;BME280;46102;39.012;-7.064;2023-05-09T09:00:52;99028.72;;;25.51;43.04
60240;BME280;46102;39.012;-7.064;2023-05-09T09:02:56;99021.09;;;25.55;42.55
60240;BME280;46102;39.012;-7.064;2023-05-09T09:05:00;99023.84;;;25.69;42.52
60240;BME280;46102;39.012;-7.064;2023-05-09T09:07:03;99018.16;;;25.84;42.22
60240;BME280;46102;39.012;-7.064;2023-05-09T09:09:06;99012.53;;;25.94;41.43
60240;BME280;46102;39.012;-7.064;2023-05-09T09:11:12;99023.31;;;26.00;40.70
60240;BME280;46102;39.012;-7.064;2023-05-09T09:13:14;99025.34;;;25.95;40.07
60240;BME280;46102;39.012;-7.064;2023-05-09T09:15:18;99025.00;;;25.90;40.05
60240;BME280;46102;39.012;-7.064;2023-05-09T09:17:23;99025.34;;;25.95;40.38
60240;BME280;46102;39.012;-7.064;2023-05-09T09:19:29;99031.66;;;26.17;40.24
60240;BME280;46102;39.012;-7.064;2023-05-09T09:21:31;99033.09;;;26.40;39.66
60240;BME280;46102;39.012;-7.064;2023-05-09T09:23:32;99037.44;;;26.52;39.68
60240;BME280;46102;39.012;-7.064;2023-05-09T09:25:34;99030.91;;;26.66;39.04
60240;BME280;46102;39.012;-7.064;2023-05-09T09:27:34;99030.84;;;26.76;38.74
60240;BME280;46102;39.012;-7.064;2023-05-09T09:29:35;99037.16;;;26.88;39.19
60240;BME280;46102;39.012;-7.064;2023-05-09T09:31:38;99040.91;;;27.15;38.38
60240;BME280;46102;39.012;-7.064;2023-05-09T09:33:38;99038.00;;;27.30;37.84
60240;BME280;46102;39.012;-7.064;2023-05-09T09:35:40;99042.31;;;27.38;37.56
60240;BME280;46102;39.012;-7.064;2023-05-09T09:37:42;99039.31;;;27.56;37.17
60240;BME280;46102;39.012;-7.064;2023-05-09T09:40:02;99033.75;;;27.83;36.84
60240;BME280;46102;39.012;-7.064;2023-05-09T09:42:11;99027.09;;;28.00;36.07
60240;BME280;46102;39.012;-7.064;2023-05-09T09:44:15;99015.53;;;28.22;35.25
60240;BME280;46102;39.012;-7.064;2023-05-09T09:46:16;99020.31;;;28.25;35.33
60240;BME280;46102;39.012;-7.064;2023-05-09T09:48:23;99025.13;;;28.28;34.46
60240;BME280;46102;39.012;-7.064;2023-05-09T09:50:24;99022.59;;;28.07;34.98
60240;BME280;46102;39.012;-7.064;2023-05-09T09:52:24;99027.38;;;28.10;35.32
60240;BME280;46102;39.012;-7.064;2023-05-09T09:54:26;99024.75;;;28.26;35.26
60240;BME280;46102;39.012;-7.064;2023-05-09T09:56:39;99023.13;;;28.52;34.31
60240;BME280;46102;39.012;-7.064;2023-05-09T09:58:40;99019.63;;;28.44;34.28
60240;BME280;46102;39.012;-7.064;2023-05-09T10:00:41;99025.38;;;28.37;34.04
60240;BME280;46102;39.012;-7.064;2023-05-09T10:02:50;99023.00;;;28.32;34.07
60240;BME280;46102;39.012;-7.064;2023-05-09T10:04:51;99017.69;;;28.38;33.88
60240;BME280;46102;39.012;-7.064;2023-05-09T10:06:55;99011.44;;;28.27;33.73
60240;BME280;46102;39.012;-7.064;2023-05-09T10:08:56;98998.91;;;28.28;34.27
60240;BME280;46102;39.012;-7.064;2023-05-09T10:10:58;98998.63;;;28.45;33.77
60240;BME280;46102;39.012;-7.064;2023-05-09T10:13:02;98992.84;;;28.56;33.66
60240;BME280;46102;39.012;-7.064;2023-05-09T10:15:03;98987.22;;;28.56;33.48
60240;BME280;46102;39.012;-7.064;2023-05-09T10:17:07;98987.41;;;28.42;33.29
60240;BME280;46102;39.012;-7.064;2023-05-09T10:19:11;98988.53;;;28.48;33.52
60240;BME280;46102;39.012;-7.064;2023-05-09T10:21:14;98989.66;;;28.54;33.13
60240;BME280;46102;39.012;-7.064;2023-05-09T10:23:15;98987.03;;;28.67;33.04
60240;BME280;46102;39.012;-7.064;2023-05-09T10:25:21;99000.09;;;28.81;33.35
60240;BME280;46102;39.012;-7.064;2023-05-09T10:27:29;98990.66;;;28.91;33.29
60240;BME280;46102;39.012;-7.064;2023-05-09T10:29:36;98987.06;;;29.11;32.96
60240;BME280;46102;39.012;-7.064;2023-05-09T10:31:38;98998.13;;;29.25;32.74
60240;BME280;46102;39.012;-7.064;2023-05-09T10:33:48;98996.00;;;29.29;32.55
60240;BME280;46102;39.012;-7.064;2023-05-09T10:35:51;99002.75;;;29.35;32.09
60240;BME280;46102;39.012;-7.064;2023-05-09T10:37:55;99003.09;;;29.37;32.42
60240;BME280;46102;39.012;-7.064;2023-05-09T10:39:58;99000.72;;;29.36;32.36
60240;BME280;46102;39.012;-7.064;2023-05-09T10:42:01;99005.84;;;29.61;31.91
60240;BME280;46102;39.012;-7.064;2023-05-09T10:44:02;99000.78;;;29.72;31.51
60240;BME280;46102;39.012;-7.064;2023-05-09T10:46:04;99011.50;;;29.81;31.72
60240;BME280;46102;39.012;-7.064;2023-05-09T10:48:05;99011.69;;;29.74;31.43
60240;BME280;46102;39.012;-7.064;2023-05-09T10:50:09;99008.56;;;29.88;31.35
60240;BME280;46102;39.012;-7.064;2023-05-09T10:52:11;99005.09;;;29.97;31.92
60240;BME280;46102;39.012;-7.064;2023-05-09T10:54:13;99006.03;;;30.10;31.22
60240;BME280;46102;39.012;-7.064;2023-05-09T10:56:25;98997.91;;;30.12;31.55